createdAt,value
2017-12-26T00:00:22.749Z,74.60
2017-12-26T00:02:50.616Z,79.07
2017-12-26T00:05:18.484Z,66.72
2017-12-26T00:07:46.351Z,72.40
2017-12-26T00:10:14.147Z,79.55
2017-12-26T00:12:41.859Z,69.20
2017-12-26T00:15:09.575Z,68.10
2017-12-26T00:17:38.062Z,64.97
2017-12-26T00:20:06.554Z,69.22
2017-12-26T00:22:35.030Z,67.72
2017-12-26T00:25:03.513Z,64.97
2017-12-26T00:27:31.990Z,54.88
2017-12-26T00:30:00.465Z,61.60
2017-12-26T00:32:28.186Z,62.53
2017-12-26T00:34:55.973Z,59.15
2017-12-26T00:37:23.685Z,59.40
2017-12-26T00:39:51.568Z,55.92
2017-12-26T00:42:19.770Z,52.58
2017-12-26T00:44:47.492Z,56.90
2017-12-26T00:47:15.207Z,57.92
2017-12-26T00:49:42.921Z,51.97
2017-12-26T00:52:10.646Z,45.60
2017-12-26T00:54:38.359Z,52.05
2017-12-26T00:57:06.075Z,59.13
2017-12-26T00:59:33.806Z,53.30
2017-12-26T01:02:01.513Z,54.08
2017-12-26T01:04:30.073Z,57.38
2017-12-26T01:06:57.782Z,58.08
2017-12-26T01:09:25.494Z,54.28
2017-12-26T01:11:53.202Z,47.33
2017-12-26T01:14:21.680Z,53.95
2017-12-26T01:16:50.219Z,49.72
2017-12-26T01:19:18.086Z,49.22
2017-12-26T01:21:45.954Z,57.53
2017-12-26T01:24:13.822Z,47.08
2017-12-26T01:26:41.688Z,52.83
2017-12-26T01:29:09.556Z,50.53
2017-12-26T01:31:37.423Z,49.70
2017-12-26T01:34:05.291Z,43.97
2017-12-26T01:36:33.158Z,50.78
2017-12-26T01:39:01.026Z,48.13
2017-12-26T01:41:28.896Z,47.88
2017-12-26T01:43:56.762Z,45.00
2017-12-26T01:46:24.628Z,48.65
2017-12-26T01:48:52.495Z,40.63
2017-12-26T01:51:20.363Z,46.08
2017-12-26T01:53:48.232Z,36.90
2017-12-26T01:56:16.097Z,36.00
2017-12-26T01:58:43.964Z,33.90
2017-12-26T02:01:11.832Z,41.15
2017-12-26T02:03:39.699Z,37.08
2017-12-26T02:06:07.567Z,41.05
2017-12-26T02:08:35.447Z,40.63
2017-12-26T02:11:03.301Z,38.60
2017-12-26T02:13:31.010Z,40.58
2017-12-26T02:15:59.490Z,42.45
2017-12-26T02:18:28.009Z,44.50
2017-12-26T02:20:55.899Z,42.17
2017-12-26T02:23:23.764Z,37.38
2017-12-26T02:25:51.632Z,40.45
2017-12-26T02:28:19.502Z,38.58
2017-12-26T02:30:47.365Z,36.83
2017-12-26T02:33:15.234Z,39.03
2017-12-26T02:35:43.102Z,39.60
2017-12-26T02:38:10.968Z,38.13
2017-12-26T02:40:38.835Z,43.35
2017-12-26T02:43:06.908Z,39.05
2017-12-26T02:45:34.774Z,33.17
2017-12-26T02:48:02.646Z,38.85
2017-12-26T02:50:30.510Z,38.65
2017-12-26T02:52:58.380Z,38.65
2017-12-26T02:55:26.243Z,37.00
2017-12-26T02:57:54.111Z,39.00
2017-12-26T03:00:21.979Z,37.38
2017-12-26T03:02:49.846Z,37.55
2017-12-26T03:05:17.713Z,36.28
2017-12-26T03:07:45.580Z,32.83
2017-12-26T03:10:13.448Z,40.10
2017-12-26T03:12:41.245Z,32.28
2017-12-26T03:15:09.081Z,41.63
2017-12-26T03:17:36.949Z,32.03
2017-12-26T03:20:04.814Z,34.38
2017-12-26T03:22:32.682Z,35.72
2017-12-26T03:25:00.549Z,33.80
2017-12-26T03:27:28.417Z,36.95
2017-12-26T03:29:56.285Z,36.72
2017-12-26T03:32:24.152Z,36.30
2017-12-26T03:34:52.020Z,33.17
2017-12-26T03:37:19.886Z,35.58
2017-12-26T03:39:47.756Z,34.33
2017-12-26T03:42:15.622Z,37.72
2017-12-26T03:44:43.488Z,37.55
2017-12-26T03:47:11.358Z,35.22
2017-12-26T03:49:39.222Z,36.08
2017-12-26T03:52:07.091Z,33.75
2017-12-26T03:54:34.956Z,36.13
2017-12-26T03:57:02.825Z,38.78
2017-12-26T03:59:30.692Z,36.70
2017-12-26T04:01:58.559Z,35.08
2017-12-26T04:04:26.426Z,35.67
2017-12-26T04:06:54.293Z,43.75
2017-12-26T04:09:22.162Z,40.42
2017-12-26T04:11:49.961Z,49.35
2017-12-26T04:14:18.613Z,44.30
2017-12-26T04:16:46.480Z,43.28
2017-12-26T04:19:14.347Z,49.75
2017-12-26T04:21:42.215Z,37.95
2017-12-26T04:24:11.003Z,43.60
2017-12-26T04:26:38.862Z,42.33
2017-12-26T04:29:06.738Z,38.78
2017-12-26T04:31:34.605Z,33.38
2017-12-26T04:34:02.473Z,38.90
2017-12-26T04:36:30.340Z,43.60
2017-12-26T04:38:58.208Z,41.65
2017-12-26T04:41:26.074Z,39.25
2017-12-26T04:43:53.942Z,40.83
2017-12-26T04:46:21.809Z,44.63
2017-12-26T04:48:49.677Z,43.65
2017-12-26T04:51:17.544Z,44.05
2017-12-26T04:53:45.411Z,37.67
2017-12-26T04:56:13.279Z,37.05
2017-12-26T04:58:41.146Z,40.85
2017-12-26T05:01:09.014Z,43.30
2017-12-26T05:03:37.918Z,42.05
2017-12-26T05:06:05.771Z,38.50
2017-12-26T05:08:33.638Z,57.20
2017-12-26T05:11:01.506Z,51.47
2017-12-26T05:13:29.374Z,51.13
2017-12-26T05:15:57.241Z,41.67
2017-12-26T05:18:25.108Z,46.28
2017-12-26T05:20:53.021Z,51.92
2017-12-26T05:23:21.662Z,56.67
2017-12-26T05:25:49.530Z,63.13
2017-12-26T05:28:17.396Z,58.75
2017-12-26T05:30:45.367Z,59.05
2017-12-26T05:33:13.234Z,63.90
2017-12-26T05:35:41.101Z,56.33
2017-12-26T05:38:08.969Z,46.78
2017-12-26T05:40:36.839Z,50.33
2017-12-26T05:43:04.702Z,42.00
2017-12-26T05:45:32.573Z,43.42
2017-12-26T05:48:00.441Z,42.20
2017-12-26T05:50:28.313Z,42.90
2017-12-26T05:52:56.172Z,46.25
2017-12-26T05:55:24.040Z,61.45
2017-12-26T05:57:51.907Z,59.42
2017-12-26T06:00:19.776Z,64.30
2017-12-26T06:02:47.644Z,66.65
2017-12-26T06:05:15.511Z,64.12
2017-12-26T06:07:43.377Z,105.57
2017-12-26T06:10:11.245Z,75.55
2017-12-26T06:12:39.112Z,70.43
2017-12-26T06:15:06.979Z,66.03
2017-12-26T06:17:34.846Z,63.75
2017-12-26T06:20:02.713Z,59.90
2017-12-26T06:22:30.581Z,63.17
2017-12-26T06:24:58.448Z,65.32
2017-12-26T06:27:27.134Z,73.15
2017-12-26T06:29:55.002Z,56.45
2017-12-26T06:32:22.868Z,63.80
2017-12-26T06:34:50.735Z,62.25
2017-12-26T06:37:18.603Z,49.65
2017-12-26T06:39:46.471Z,42.55
2017-12-26T06:42:14.338Z,40.60
2017-12-26T06:44:42.204Z,34.80
2017-12-26T06:47:10.072Z,30.37
2017-12-26T06:49:37.940Z,31.70
2017-12-26T06:52:05.807Z,31.25
2017-12-26T06:54:33.674Z,35.65
2017-12-26T06:57:01.542Z,29.73
2017-12-26T06:59:29.411Z,29.08
2017-12-26T07:01:57.277Z,38.80
2017-12-26T07:04:25.143Z,31.00
2017-12-26T07:06:52.942Z,32.13
2017-12-26T07:09:21.493Z,33.40
2017-12-26T07:11:49.360Z,31.42
2017-12-26T07:14:17.227Z,32.05
2017-12-26T07:16:45.022Z,31.12
2017-12-26T07:19:12.859Z,33.13
2017-12-26T07:21:46.392Z,33.88
2017-12-26T07:24:14.227Z,38.03
2017-12-26T07:26:42.093Z,32.78
2017-12-26T07:29:09.961Z,36.85
2017-12-26T07:31:37.828Z,46.17
2017-12-26T07:34:05.698Z,40.28
2017-12-26T07:36:33.565Z,40.58
2017-12-26T07:39:01.431Z,30.92
2017-12-26T07:41:29.298Z,28.40
2017-12-26T07:43:57.202Z,34.75
2017-12-26T07:46:25.851Z,33.38
2017-12-26T07:48:53.722Z,28.85
2017-12-26T07:51:21.588Z,31.50
2017-12-26T07:53:49.455Z,31.05
2017-12-26T07:56:17.253Z,30.80
2017-12-26T07:58:45.904Z,35.30
2017-12-26T08:01:13.771Z,32.50
2017-12-26T08:03:41.639Z,32.35
2017-12-26T08:06:09.507Z,32.10
2017-12-26T08:08:37.374Z,35.05
2017-12-26T08:11:05.241Z,31.83
2017-12-26T08:13:33.109Z,35.03
2017-12-26T08:16:01.796Z,28.75
2017-12-26T08:18:31.600Z,31.23
2017-12-26T08:21:02.115Z,28.25
2017-12-26T08:23:32.345Z,28.90
2017-12-26T08:26:02.983Z,34.47
2017-12-26T08:28:30.860Z,34.22
2017-12-26T08:30:58.934Z,42.22
2017-12-26T08:33:28.849Z,36.03
2017-12-26T08:35:57.742Z,36.95
2017-12-26T08:38:27.266Z,35.53
2017-12-26T08:40:57.661Z,33.08
2017-12-26T08:43:27.309Z,35.38
2017-12-26T08:45:57.333Z,41.72
2017-12-26T08:48:27.734Z,32.95
2017-12-26T08:53:56.980Z,25.98
2017-12-26T08:56:27.288Z,34.55
2017-12-26T08:58:56.991Z,31.90
2017-12-26T09:01:27.464Z,28.00
2017-12-26T09:03:57.822Z,26.95
2017-12-26T09:06:28.459Z,23.65
2017-12-26T09:08:56.334Z,23.87
2017-12-26T09:11:24.202Z,20.58
2017-12-26T09:13:52.070Z,58.35
2017-12-26T09:16:19.938Z,23.08
2017-12-26T09:18:47.804Z,20.30
2017-12-26T09:21:15.671Z,12.57
2017-12-26T09:23:43.538Z,12.32
2017-12-26T09:26:11.410Z,17.37
2017-12-26T09:28:39.273Z,12.05
2017-12-26T09:31:07.139Z,10.40
2017-12-26T09:33:35.826Z,11.55
2017-12-26T09:36:03.694Z,9.77
2017-12-26T09:38:31.562Z,8.27
2017-12-26T09:40:59.430Z,9.25
2017-12-26T09:43:27.297Z,7.40
2017-12-26T09:45:55.170Z,10.95
2017-12-26T09:48:23.033Z,8.55
2017-12-26T09:50:50.898Z,9.05
2017-12-26T09:53:18.768Z,6.72
2017-12-26T09:55:46.633Z,9.95
2017-12-26T09:58:14.500Z,8.80
2017-12-26T10:00:42.368Z,8.63
2017-12-26T10:03:10.166Z,11.00
2017-12-26T10:05:38.819Z,7.82
2017-12-26T10:08:06.688Z,8.00
2017-12-26T10:10:34.553Z,9.00
2017-12-26T10:13:02.426Z,6.85
2017-12-26T10:15:30.288Z,6.20
2017-12-26T10:17:58.160Z,6.00
2017-12-26T10:20:26.031Z,7.97
2017-12-26T10:22:53.891Z,9.82
2017-12-26T10:25:21.757Z,7.55
2017-12-26T10:27:50.578Z,8.48
2017-12-26T10:30:19.237Z,8.15
2017-12-26T10:32:47.102Z,6.95
2017-12-26T10:35:15.175Z,5.37
2017-12-26T10:37:44.884Z,7.35
2017-12-26T10:40:12.753Z,7.70
2017-12-26T10:42:40.823Z,6.82
2017-12-26T10:45:08.796Z,8.32
2017-12-26T10:47:37.029Z,9.00
2017-12-26T10:50:07.369Z,10.00
2017-12-26T10:52:35.364Z,8.32
2017-12-26T10:55:03.232Z,9.77
2017-12-26T10:57:31.099Z,6.32
2017-12-26T10:59:58.966Z,7.35
2017-12-26T11:02:26.838Z,6.30
2017-12-26T11:04:54.700Z,8.95
2017-12-26T11:07:22.569Z,6.80
2017-12-26T11:09:50.435Z,7.80
2017-12-26T11:12:18.646Z,7.30
2017-12-26T11:14:47.296Z,4.37
2017-12-26T11:17:15.164Z,5.70
2017-12-26T11:19:43.031Z,5.90
2017-12-26T11:22:10.803Z,3.80
2017-12-26T11:24:38.664Z,4.00
2017-12-26T11:27:06.531Z,1.98
2017-12-26T11:29:34.399Z,2.12
2017-12-26T11:32:02.266Z,4.12
2017-12-26T11:34:30.134Z,2.20
2017-12-26T11:37:00.292Z,2.60
2017-12-26T11:39:29.601Z,8.63
2017-12-26T11:41:57.523Z,1.50
2017-12-26T11:44:25.390Z,2.75
2017-12-26T11:46:53.259Z,1.95
2017-12-26T11:49:21.125Z,1.50
2017-12-26T11:51:48.993Z,1.17
2017-12-26T11:54:18.262Z,5.32
2017-12-26T11:56:46.161Z,1.20
2017-12-26T11:59:14.022Z,3.10
2017-12-26T12:01:41.898Z,1.10
2017-12-26T12:04:09.762Z,2.28
2017-12-26T12:06:37.630Z,1.80
2017-12-26T12:09:05.498Z,1.02
2017-12-26T12:11:33.338Z,1.10
2017-12-26T12:14:01.233Z,1.60
2017-12-26T12:16:29.100Z,1.12
2017-12-26T12:18:56.967Z,1.30
2017-12-26T12:21:24.938Z,1.10
2017-12-26T12:23:52.808Z,1.45
2017-12-26T12:26:20.671Z,1.20
2017-12-26T12:28:48.539Z,1.62
2017-12-26T12:31:16.406Z,3.10
2017-12-26T12:33:44.273Z,1.50
2017-12-26T12:36:12.140Z,1.12
2017-12-26T12:38:40.008Z,2.12
2017-12-26T12:41:07.719Z,1.48
2017-12-26T12:43:36.199Z,2.83
2017-12-26T12:46:04.840Z,1.17
2017-12-26T12:48:32.709Z,1.42
2017-12-26T12:51:00.574Z,1.52
2017-12-26T12:53:28.441Z,2.35
2017-12-26T12:55:56.308Z,1.30
2017-12-26T12:58:24.175Z,2.05
2017-12-26T13:00:52.043Z,1.85
2017-12-26T13:03:19.910Z,1.40
2017-12-26T13:05:47.780Z,1.27
2017-12-26T13:08:15.644Z,2.65
2017-12-26T13:10:43.512Z,1.25
2017-12-26T13:13:11.382Z,0.90
2017-12-26T13:15:39.246Z,1.23
2017-12-26T13:18:07.114Z,1.27
2017-12-26T13:20:34.986Z,1.30
2017-12-26T13:23:03.668Z,4.40
2017-12-26T13:25:31.535Z,2.10
2017-12-26T13:27:59.402Z,1.33
2017-12-26T13:30:27.372Z,1.30
2017-12-26T13:32:55.239Z,3.47
2017-12-26T13:35:23.106Z,1.77
2017-12-26T13:37:50.974Z,3.03
2017-12-26T13:40:18.840Z,2.45
2017-12-26T13:42:46.707Z,1.40
2017-12-26T13:45:14.575Z,9.50
2017-12-26T13:47:42.444Z,27.92
2017-12-26T13:50:10.309Z,3.33
2017-12-26T13:52:38.178Z,1.55
2017-12-26T13:55:06.044Z,3.37
2017-12-26T13:57:33.912Z,2.03
2017-12-26T14:00:01.784Z,1.98
2017-12-26T14:02:29.646Z,1.40
2017-12-26T14:04:57.514Z,2.25
2017-12-26T14:07:25.381Z,3.65
2017-12-26T14:09:53.101Z,1.45
2017-12-26T14:12:20.886Z,2.03
2017-12-26T14:14:48.678Z,4.35
2017-12-26T14:17:16.544Z,1.55
2017-12-26T14:19:44.412Z,1.52
2017-12-26T14:22:12.277Z,1.23
2017-12-26T14:24:40.148Z,2.60
2017-12-26T14:27:08.013Z,1.75
2017-12-26T14:29:35.844Z,3.15
2017-12-26T14:32:03.749Z,7.28
2017-12-26T14:34:31.615Z,3.60
2017-12-26T14:36:59.481Z,2.37
2017-12-26T14:39:27.350Z,2.65
2017-12-26T14:41:55.217Z,3.72
2017-12-26T14:44:23.085Z,2.00
2017-12-26T14:46:50.951Z,1.62
2017-12-26T14:49:18.818Z,1.83
2017-12-26T14:51:46.686Z,3.37
2017-12-26T14:54:14.553Z,1.55
2017-12-26T14:56:42.420Z,2.75
2017-12-26T14:59:10.288Z,1.67
2017-12-26T15:01:38.156Z,2.83
2017-12-26T15:04:06.023Z,1.30
2017-12-26T15:06:33.889Z,1.60
2017-12-26T15:09:01.758Z,2.55
2017-12-26T15:11:29.623Z,1.67
2017-12-26T15:13:57.492Z,2.87
2017-12-26T15:16:25.358Z,3.47
2017-12-26T15:18:53.227Z,2.60
2017-12-26T15:21:21.093Z,5.93
2017-12-26T15:23:48.961Z,4.55
2017-12-26T15:26:16.828Z,2.40
2017-12-26T15:28:44.696Z,4.90
2017-12-26T15:31:12.566Z,2.65
2017-12-26T15:33:40.434Z,2.40
2017-12-26T15:36:08.298Z,2.55
2017-12-26T15:38:36.169Z,9.23
2017-12-26T15:41:04.032Z,2.65
2017-12-26T15:43:31.900Z,2.12
2017-12-26T15:45:59.772Z,3.37
2017-12-26T15:48:27.635Z,2.85
2017-12-26T15:50:55.502Z,3.28
2017-12-26T15:53:23.369Z,1.23
2017-12-26T15:55:51.237Z,1.15
2017-12-26T15:58:19.105Z,2.00
2017-12-26T16:00:46.970Z,1.45
2017-12-26T16:03:14.839Z,1.20
2017-12-26T16:05:42.708Z,4.68
2017-12-26T16:08:11.392Z,2.78
2017-12-26T16:10:39.259Z,1.70
2017-12-26T16:13:07.127Z,1.30
2017-12-26T16:15:34.993Z,1.83
2017-12-26T16:18:02.861Z,3.60
2017-12-26T16:20:30.728Z,1.50
2017-12-26T16:22:58.597Z,1.20
2017-12-26T16:25:26.463Z,1.83
2017-12-26T16:27:54.330Z,2.20
2017-12-26T16:30:22.198Z,1.33
2017-12-26T16:32:50.066Z,7.00
2017-12-26T16:35:17.939Z,1.42
2017-12-26T16:37:45.799Z,3.33
2017-12-26T16:40:13.674Z,1.75
2017-12-26T16:42:41.739Z,5.87
2017-12-26T16:45:09.606Z,2.17
2017-12-26T16:47:37.478Z,1.70
2017-12-26T16:50:05.345Z,5.07
2017-12-26T16:52:33.211Z,3.20
2017-12-26T16:55:01.084Z,2.78
2017-12-26T16:57:31.442Z,1.30
2017-12-26T16:59:59.708Z,3.30
2017-12-26T17:02:27.545Z,2.85
2017-12-26T17:04:55.316Z,1.98
2017-12-26T17:07:23.178Z,2.10
2017-12-26T17:09:51.049Z,1.60
2017-12-26T17:12:18.915Z,1.30
2017-12-26T17:14:47.830Z,3.20
2017-12-26T17:17:15.670Z,4.03
2017-12-26T17:19:43.541Z,3.20
2017-12-26T17:22:11.406Z,1.80
2017-12-26T17:24:39.273Z,4.10
2017-12-26T17:27:07.140Z,2.47
2017-12-26T17:29:35.007Z,4.15
2017-12-26T17:32:02.875Z,3.55
2017-12-26T17:34:30.742Z,2.65
2017-12-26T17:36:58.609Z,2.62
2017-12-26T17:39:26.477Z,1.60
2017-12-26T17:41:54.344Z,5.97
2017-12-26T17:44:22.138Z,3.92
2017-12-26T17:46:49.976Z,2.67
2017-12-26T17:49:17.883Z,2.00
2017-12-26T17:51:46.530Z,4.22
2017-12-26T17:54:14.398Z,1.50
2017-12-26T17:56:42.149Z,2.20
2017-12-26T17:59:10.030Z,5.20
2017-12-26T18:01:37.897Z,2.75
2017-12-26T18:04:05.764Z,5.18
2017-12-26T18:06:33.631Z,2.87
2017-12-26T18:09:01.498Z,3.15
2017-12-26T18:11:29.365Z,1.75
2017-12-26T18:13:57.234Z,3.08
2017-12-26T18:16:25.101Z,3.17
2017-12-26T18:18:52.899Z,2.17
2017-12-26T18:21:21.451Z,1.70
2017-12-26T18:23:49.321Z,3.10
2017-12-26T18:26:17.185Z,6.22
2017-12-26T18:31:17.732Z,1.65
2017-12-26T18:33:45.600Z,3.53
2017-12-26T18:36:13.467Z,1.33
2017-12-26T18:38:41.334Z,2.60
2017-12-26T18:41:09.203Z,2.20
2017-12-26T18:43:37.068Z,1.73
2017-12-26T18:46:04.936Z,3.05
2017-12-26T18:48:32.808Z,4.12
2017-12-26T18:51:00.671Z,1.60
2017-12-26T18:53:28.465Z,3.20
2017-12-26T18:55:56.302Z,3.03
2017-12-26T18:58:24.170Z,1.60
2017-12-26T19:00:52.038Z,3.22
2017-12-26T19:03:19.905Z,2.60
2017-12-26T19:05:47.772Z,7.55
2017-12-26T19:08:15.639Z,3.00
2017-12-26T19:10:43.507Z,2.45
2017-12-26T19:13:11.374Z,3.30
2017-12-26T19:15:39.242Z,3.45
2017-12-26T19:18:07.109Z,2.72
2017-12-26T19:20:34.976Z,6.05
2017-12-26T19:23:02.843Z,2.67
2017-12-26T19:25:30.711Z,2.17
2017-12-26T19:27:58.578Z,2.95
2017-12-26T19:30:26.445Z,2.20
2017-12-26T19:32:54.313Z,2.62
2017-12-26T19:35:22.181Z,5.82
2017-12-26T19:37:50.049Z,4.05
2017-12-26T19:40:17.914Z,4.20
2017-12-26T19:42:45.782Z,3.60
2017-12-26T19:45:13.649Z,3.03
2017-12-26T19:47:41.516Z,4.45
2017-12-26T19:50:09.384Z,6.37
2017-12-26T19:52:37.252Z,2.35
2017-12-26T19:55:05.119Z,5.07
2017-12-26T19:57:32.987Z,4.45
2017-12-26T20:00:00.854Z,3.62
2017-12-26T20:02:28.724Z,4.72
2017-12-26T20:04:56.632Z,5.28
2017-12-26T20:07:25.276Z,2.80
2017-12-26T20:09:53.142Z,3.28
2017-12-26T20:12:21.010Z,3.92
2017-12-26T20:14:48.877Z,6.97
2017-12-26T20:17:17.154Z,3.33
2017-12-26T20:19:45.024Z,4.70
2017-12-26T20:22:12.891Z,8.45
2017-12-26T20:24:40.680Z,2.85
2017-12-26T20:27:08.522Z,2.17
2017-12-26T20:29:36.390Z,2.90
2017-12-26T20:32:04.256Z,5.15
2017-12-26T20:34:32.123Z,2.37
2017-12-26T20:36:59.989Z,3.97
2017-12-26T20:39:27.857Z,4.75
2017-12-26T20:41:55.724Z,3.20
2017-12-26T20:44:23.592Z,2.70
2017-12-26T20:46:51.463Z,2.35
2017-12-26T20:49:19.326Z,3.33
2017-12-26T20:51:47.198Z,2.45
2017-12-26T20:54:15.061Z,2.45
2017-12-26T20:56:42.928Z,5.25
2017-12-26T20:59:10.795Z,8.88
2017-12-26T21:01:38.662Z,3.87
2017-12-26T21:04:06.531Z,3.42
2017-12-26T21:06:34.399Z,6.87
2017-12-26T21:09:02.271Z,3.50
2017-12-26T21:11:30.133Z,3.28
2017-12-26T21:13:58.000Z,4.60
2017-12-26T21:16:25.867Z,4.12
2017-12-26T21:18:53.734Z,4.82
2017-12-26T21:21:21.602Z,3.85
2017-12-26T21:23:49.473Z,3.62
2017-12-26T21:26:17.336Z,4.45
2017-12-26T21:28:45.203Z,3.25
2017-12-26T21:31:13.070Z,4.50
2017-12-26T21:33:40.942Z,4.53
2017-12-26T21:36:08.805Z,4.35
2017-12-26T21:38:36.672Z,3.67
2017-12-26T21:41:04.543Z,7.45
2017-12-26T21:43:32.408Z,5.87
2017-12-26T21:46:00.275Z,3.72
2017-12-26T21:48:28.146Z,6.25
2017-12-26T21:50:56.009Z,3.60
2017-12-26T21:53:23.877Z,3.33
2017-12-26T21:55:51.746Z,6.28
2017-12-26T21:58:19.614Z,5.20
2017-12-26T22:00:47.480Z,6.25
2017-12-26T22:03:15.348Z,5.00
2017-12-26T22:05:43.215Z,4.40
2017-12-26T22:08:11.082Z,4.28
2017-12-26T22:10:38.948Z,6.60
2017-12-26T22:13:06.815Z,4.65
2017-12-26T22:15:34.682Z,4.55
2017-12-26T22:18:02.550Z,4.37
2017-12-26T22:20:30.417Z,6.70
2017-12-26T22:22:58.285Z,4.75
2017-12-26T22:25:26.971Z,5.10
2017-12-26T22:27:54.839Z,7.68
2017-12-26T22:30:22.705Z,7.50
2017-12-26T22:32:50.573Z,4.25
2017-12-26T22:35:18.440Z,4.35
2017-12-26T22:37:46.308Z,4.20
2017-12-26T22:40:14.174Z,4.45
2017-12-26T22:42:42.042Z,5.28
2017-12-26T22:45:09.838Z,7.87
2017-12-26T22:47:37.675Z,5.40
2017-12-26T22:50:05.542Z,4.55
2017-12-26T22:52:33.409Z,4.97
2017-12-26T22:55:01.278Z,7.15
2017-12-26T22:57:29.144Z,2.67
2017-12-26T22:59:57.011Z,3.03
2017-12-26T23:02:24.878Z,5.12
2017-12-26T23:04:52.745Z,4.30
2017-12-26T23:07:20.613Z,6.87
2017-12-26T23:09:48.480Z,6.65
2017-12-26T23:12:16.347Z,4.03
2017-12-26T23:14:49.745Z,2.45
2017-12-26T23:17:23.168Z,3.83
2017-12-26T23:19:56.668Z,3.72
2017-12-26T23:22:24.507Z,4.68
2017-12-26T23:25:08.964Z,4.00
2017-12-26T23:27:42.361Z,5.18
2017-12-26T23:30:15.759Z,2.58
2017-12-26T23:32:49.086Z,6.47
2017-12-26T23:35:22.477Z,5.35
2017-12-26T23:37:55.847Z,4.80
2017-12-26T23:40:29.244Z,3.15
2017-12-26T23:43:02.586Z,3.00
2017-12-26T23:45:36.959Z,3.30
2017-12-26T23:48:10.563Z,4.75
2017-12-26T23:50:43.958Z,5.45
2017-12-26T23:53:17.457Z,7.45
2017-12-26T23:55:50.689Z,6.50
2017-12-26T23:58:24.968Z,4.43
